Time;durP1;ratioP1;P1;durP2;ratioP2;P2;SDS_P1;SDS_P2;PMS_P1;PMS_P2;Temp;Humidity;BMP_temperature;BMP_pressure;BME280_temperature;BME280_humidity;BME280_pressure;Samples;Min_cycle;Max_cycle;Signal;HPM_P1;HPM_P2
2023/12/21 00:00:40;;;;;;;2.20;1.00;;;7.00;99.90;;;7.26;100.00;100283.75;4857082;28;21530;-68
2023/12/21 00:03:02;;;;;;;0.98;0.90;;;7.00;99.90;;;7.23;100.00;100283.13;4864422;28;24451;-68
2023/12/21 00:05:24;;;;;;;1.10;1.10;;;7.00;99.90;;;7.25;100.00;100279.50;4869439;28;24933;-68
2023/12/21 00:07:46;;;;;;;1.20;1.10;;;7.00;99.90;;;7.29;100.00;100277.53;4863997;28;24478;-67
2023/12/21 00:10:09;;;;;;;1.20;1.00;;;7.10;99.90;;;7.28;100.00;100261.16;4871562;28;24534;-67
2023/12/21 00:12:31;;;;;;;0.80;0.80;;;7.10;99.90;;;7.34;100.00;100250.38;4874564;28;24550;-68
2023/12/21 00:14:53;;;;;;;1.10;0.90;;;7.20;99.90;;;7.32;100.00;100257.44;4867043;28;21143;-67
2023/12/21 00:17:15;;;;;;;1.40;0.98;;;7.10;99.90;;;7.33;100.00;100250.47;4871612;28;24531;-67
2023/12/21 00:19:37;;;;;;;0.70;0.70;;;7.20;99.90;;;7.35;100.00;100258.97;4872407;28;24442;-67
2023/12/21 00:21:59;;;;;;;0.73;0.73;;;7.20;99.90;;;7.35;100.00;100243.41;4870506;28;24912;-67
2023/12/21 00:24:21;;;;;;;1.10;1.00;;;7.20;99.90;;;7.38;100.00;100243.22;4861972;28;24590;-67
2023/12/21 00:26:43;;;;;;;0.80;0.80;;;7.10;99.90;;;7.38;100.00;100253.59;4857332;28;24936;-65
2023/12/21 00:29:05;;;;;;;0.70;0.70;;;7.20;99.90;;;7.39;100.00;100247.50;4861623;28;24973;-66
2023/12/21 00:31:27;;;;;;;1.30;1.10;;;7.20;99.90;;;7.34;100.00;100239.16;4870761;28;24448;-66
2023/12/21 00:33:49;;;;;;;1.02;1.00;;;7.20;99.90;;;7.30;100.00;100219.53;4856617;28;24482;-66
2023/12/21 00:36:17;;;;;;;0.90;0.90;;;7.10;99.90;;;7.40;100.00;100221.44;4867519;28;24458;-66
2023/12/21 00:38:39;;;;;;;1.00;1.00;;;7.20;99.90;;;7.40;100.00;100218.81;4842209;28;24455;-65
2023/12/21 00:41:01;;;;;;;0.80;0.80;;;7.20;99.90;;;7.28;100.00;100211.00;4866348;28;24485;-65
2023/12/21 00:43:23;;;;;;;0.80;0.80;;;7.20;99.90;;;7.32;100.00;100202.09;4870706;28;24442;-65
2023/12/21 00:45:45;;;;;;;0.80;0.80;;;7.10;99.90;;;7.23;100.00;100187.97;4850846;28;24531;-68
2023/12/21 00:48:07;;;;;;;1.10;1.10;;;7.10;99.90;;;7.25;100.00;100170.53;4874303;28;24942;-65
2023/12/21 00:50:29;;;;;;;1.00;1.00;;;7.00;99.90;;;7.33;100.00;100168.25;4873858;28;24434;-65
2023/12/21 00:52:52;;;;;;;0.90;0.90;;;7.10;99.90;;;7.29;100.00;100182.34;4874177;28;25189;-66
2023/12/21 00:55:14;;;;;;;1.80;1.00;;;7.10;99.90;;;7.33;100.00;100167.41;4876016;28;24535;-67
2023/12/21 00:57:36;;;;;;;1.00;1.00;;;7.10;99.90;;;7.33;100.00;100167.41;4870116;28;24463;-66
2023/12/21 00:59:58;;;;;;;0.80;0.80;;;7.10;99.90;;;7.30;100.00;100162.44;4869038;28;24474;-66
2023/12/21 01:02:20;;;;;;;0.90;0.90;;;7.10;99.90;;;7.30;100.00;100154.66;4868248;28;25094;-65
2023/12/21 01:04:42;;;;;;;0.90;0.90;;;7.10;99.90;;;7.34;100.00;100159.53;4871226;28;24446;-66
2023/12/21 01:07:04;;;;;;;0.70;0.70;;;7.10;99.90;;;7.34;100.00;100153.50;4882766;28;24424;-66
2023/12/21 01:09:26;;;;;;;0.60;0.60;;;7.20;99.90;;;7.33;100.00;100142.28;4873578;28;24481;-65
2023/12/21 01:11:48;;;;;;;0.70;0.70;;;7.20;99.90;;;7.40;100.00;100147.91;4870708;28;24447;-66
2023/12/21 01:14:10;;;;;;;1.90;0.65;;;7.20;99.90;;;7.43;100.00;100153.72;4874728;28;24454;-65
2023/12/21 01:16:31;;;;;;;0.50;0.50;;;7.20;99.90;;;7.47;100.00;100159.56;4846449;28;24999;-66
2023/12/21 01:18:54;;;;;;;0.60;0.60;;;7.30;99.90;;;7.45;100.00;100149.25;4868459;28;25016;-66
2023/12/21 01:21:16;;;;;;;0.50;0.50;;;7.30;99.90;;;7.42;100.00;100157.28;4862610;28;24519;-66
2023/12/21 01:23:38;;;;;;;0.80;0.77;;;7.30;99.90;;;7.40;100.00;100155.69;4862762;28;24458;-65
2023/12/21 01:25:59;;;;;;;0.50;0.50;;;7.20;99.90;;;7.47;100.00;100152.63;4863374;28;24506;-66
2023/12/21 01:28:21;;;;;;;0.50;0.50;;;7.30;99.90;;;7.47;100.00;100139.63;4873629;28;24534;-65
2023/12/21 01:30:43;;;;;;;0.50;0.50;;;7.20;99.90;;;7.54;100.00;100138.28;4874030;28;24442;-66
2023/12/21 01:33:05;;;;;;;0.50;0.50;;;7.30;99.90;;;7.49;100.00;100129.13;4868228;28;24539;-66
2023/12/21 01:35:27;;;;;;;0.50;0.50;;;7.30;99.90;;;7.42;100.00;100128.72;4875217;28;24435;-67
2023/12/21 01:37:49;;;;;;;0.60;0.60;;;7.30;99.90;;;7.52;100.00;100132.34;4870966;28;24474;-66
2023/12/21 01:40:12;;;;;;;0.63;0.60;;;7.30;99.90;;;7.56;100.00;100139.00;4873201;28;24527;-66
2023/12/21 01:42:34;;;;;;;0.60;0.60;;;7.30;99.90;;;7.52;100.00;100119.38;4862189;28;24510;-65
2023/12/21 01:44:56;;;;;;;0.55;0.55;;;7.30;99.90;;;7.53;100.00;100115.84;4857771;28;24450;-65
2023/12/21 01:47:18;;;;;;;0.80;0.50;;;7.40;99.90;;;7.57;100.00;100111.28;4872608;28;24526;-66
2023/12/21 01:49:41;;;;;;;0.40;0.40;;;7.30;99.90;;;7.56;100.00;100104.44;4855561;28;24515;-66
2023/12/21 01:52:05;;;;;;;0.52;0.52;;;7.40;99.90;;;7.54;100.00;100099.31;4872927;28;24493;-65
2023/12/21 01:54:27;;;;;;;0.80;0.60;;;7.30;99.90;;;7.52;100.00;100085.63;4865703;28;24450;-66
2023/12/21 01:56:49;;;;;;;1.40;0.70;;;7.30;99.90;;;7.56;100.00;100081.06;4866226;28;25039;-66
2023/12/21 01:59:11;;;;;;;0.50;0.50;;;7.30;99.90;;;7.62;100.00;100081.47;4866395;28;21164;-66
2023/12/21 02:01:33;;;;;;;0.57;0.57;;;7.40;99.90;;;7.69;100.00;100087.06;4859505;28;24458;-68
2023/12/21 02:03:56;;;;;;;0.50;0.50;;;7.50;99.90;;;7.69;100.00;100087.91;4839725;28;24601;-67
2023/12/21 02:06:18;;;;;;;2.90;0.60;;;7.50;99.90;;;7.61;100.00;100077.22;4862960;28;24491;-66
2023/12/21 02:08:40;;;;;;;0.60;0.60;;;7.40;99.90;;;7.67;100.00;100068.16;4862796;28;24440;-66
2023/12/21 02:11:09;;;;;;;0.50;0.50;;;7.40;99.90;;;7.69;100.00;100058.50;4864537;28;24550;-66
2023/12/21 02:13:30;;;;;;;0.70;0.70;;;7.50;99.90;;;7.76;100.00;100055.41;4869068;28;24459;-66
2023/12/21 02:15:55;;;;;;;0.60;0.60;;;7.50;99.90;;;7.78;100.00;100058.72;4854399;28;24443;-65
2023/12/21 02:18:17;;;;;;;0.60;0.60;;;7.60;99.90;;;7.77;100.00;100051.84;4866280;28;24492;-66
2023/12/21 02:20:41;;;;;;;0.50;0.50;;;7.50;99.90;;;7.86;100.00;100052.16;4869924;28;24554;-66
2023/12/21 02:23:04;;;;;;;0.60;0.60;;;7.60;99.90;;;7.82;100.00;100049.75;4858243;28;24484;-65
2023/12/21 02:25:27;;;;;;;0.60;0.60;;;7.60;99.90;;;7.84;100.00;100049.66;4838890;28;24480;-65
2023/12/21 02:27:50;;;;;;;0.52;0.52;;;7.60;99.90;;;7.91;100.00;100045.69;4852908;28;24431;-66
2023/12/21 02:30:12;;;;;;;0.50;0.50;;;7.60;99.90;;;7.96;100.00;100041.03;4864071;28;24881;-67
2023/12/21 02:32:34;;;;;;;1.20;0.60;;;7.60;99.90;;;7.96;100.00;100040.19;4865699;28;24452;-66
2023/12/21 02:34:56;;;;;;;0.70;0.70;;;7.70;99.90;;;7.97;100.00;100027.06;4872267;28;24965;-65
2023/12/21 02:37:20;;;;;;;0.60;0.60;;;7.70;99.90;;;8.01;100.00;100015.53;4864247;28;24512;-66
2023/12/21 02:39:42;;;;;;;0.57;0.57;;;7.70;99.90;;;8.03;100.00;99997.25;4862119;28;24493;-65
2023/12/21 02:42:04;;;;;;;0.50;0.50;;;7.70;99.90;;;8.07;99.84;99977.91;4864340;28;25019;-67
2023/12/21 02:44:26;;;;;;;0.50;0.50;;;7.80;99.90;;;8.02;100.00;99980.84;4868260;28;24594;-66
2023/12/21 02:46:48;;;;;;;0.50;0.50;;;7.80;99.90;;;8.03;99.85;99997.25;4870232;28;24539;-66
2023/12/21 02:49:10;;;;;;;0.60;0.60;;;7.80;99.90;;;8.02;100.00;99995.59;4865426;28;24912;-66
2023/12/21 02:51:32;;;;;;;0.60;0.60;;;7.80;99.90;;;8.02;100.00;99985.19;4872080;28;24431;-65
2023/12/21 02:53:54;;;;;;;0.50;0.50;;;7.80;99.90;;;8.02;100.00;99988.63;4864575;28;24555;-65
2023/12/21 02:56:15;;;;;;;0.50;0.50;;;7.80;99.90;;;8.06;99.73;99989.22;4873628;28;24443;-65
2023/12/21 02:58:37;;;;;;;0.52;0.52;;;7.80;99.90;;;7.98;100.00;99976.78;4868692;28;24434;-65
2023/12/21 03:01:01;;;;;;;1.30;0.63;;;7.80;99.90;;;7.90;100.00;99980.88;4873313;28;24431;-67
2023/12/21 03:03:23;;;;;;;1.00;0.47;;;7.70;99.90;;;7.83;100.00;99990.88;4874180;28;24514;-65
2023/12/21 03:05:46;;;;;;;0.70;0.60;;;7.70;99.90;;;7.77;100.00;99986.91;4871045;28;24433;-64
2023/12/21 03:08:08;;;;;;;0.50;0.50;;;7.60;99.90;;;7.78;100.00;99991.19;4865293;28;24443;-66
2023/12/21 03:10:30;;;;;;;0.60;0.60;;;7.60;99.90;;;7.73;100.00;99987.28;4852817;28;24483;-66
2023/12/21 03:12:52;;;;;;;1.90;0.65;;;7.50;99.90;;;7.69;100.00;99986.63;4853762;28;24526;-67
2023/12/21 03:15:14;;;;;;;0.70;0.70;;;7.50;99.90;;;7.73;100.00;99989.88;4871536;28;24431;-66
2023/12/21 03:17:36;;;;;;;1.02;0.60;;;7.50;99.90;;;7.62;100.00;99967.22;4872497;28;24451;-67
2023/12/21 03:19:58;;;;;;;0.50;0.50;;;7.50;99.90;;;7.64;100.00;99967.97;4862290;28;24455;-65
2023/12/21 03:22:20;;;;;;;0.60;0.60;;;7.50;99.90;;;7.64;100.00;99967.13;4871102;28;24489;-66
2023/12/21 03:24:42;;;;;;;0.70;0.60;;;7.40;99.90;;;7.72;100.00;99973.44;4864522;28;24869;-67
2023/12/21 03:27:04;;;;;;;0.60;0.60;;;7.50;99.90;;;7.77;100.00;99983.50;4856477;28;24430;-67
2023/12/21 03:29:26;;;;;;;0.70;0.70;;;7.50;99.90;;;7.77;100.00;99980.91;4873360;28;24443;-66
2023/12/21 03:31:48;;;;;;;0.60;0.60;;;7.50;99.90;;;7.75;100.00;99967.22;4876438;28;24451;-67
2023/12/21 03:34:10;;;;;;;0.60;0.60;;;7.50;99.90;;;7.77;100.00;99963.56;4873113;28;25344;-67
2023/12/21 03:36:32;;;;;;;0.60;0.60;;;7.50;99.90;;;7.83;100.00;99960.53;4867370;28;24443;-66
2023/12/21 03:38:54;;;;;;;0.60;0.60;;;7.60;99.90;;;7.72;100.00;99941.47;4869137;28;24543;-67
2023/12/21 03:41:16;;;;;;;0.60;0.60;;;7.50;99.90;;;7.75;100.00;99944.66;4876062;28;24427;-67
2023/12/21 03:43:38;;;;;;;1.10;0.63;;;7.50;99.90;;;7.80;100.00;99952.97;4867609;28;24963;-67
2023/12/21 03:46:00;;;;;;;0.70;0.70;;;7.50;99.90;;;7.77;100.00;99942.78;4870734;28;24821;-66
2023/12/21 03:48:22;;;;;;;1.00;0.70;;;7.60;99.90;;;7.75;100.00;99930.88;4870957;28;24458;-66
2023/12/21 03:50:44;;;;;;;0.70;0.70;;;7.50;99.90;;;7.70;100.00;99926.00;4866808;28;24423;-67
2023/12/21 03:53:09;;;;;;;0.73;0.73;;;7.50;99.90;;;7.78;100.00;99921.06;4870190;28;24513;-67
2023/12/21 03:55:31;;;;;;;0.60;0.60;;;7.60;99.90;;;7.82;100.00;99921.69;4870943;28;24538;-65
2023/12/21 03:57:53;;;;;;;0.57;0.57;;;7.60;99.90;;;7.78;100.00;99918.47;4868384;28;24613;-68
2023/12/21 04:00:18;;;;;;;0.60;0.60;;;7.60;99.90;;;7.74;100.00;99905.81;4857727;28;24457;-68
2023/12/21 04:02:40;;;;;;;1.10;0.50;;;7.50;99.90;;;7.78;100.00;99902.91;4864675;28;24904;-67
2023/12/21 04:05:03;;;;;;;0.80;0.70;;;7.60;99.90;;;7.78;100.00;99889.91;4875118;28;24438;-66
2023/12/21 04:07:25;;;;;;;0.75;0.57;;;7.60;99.90;;;7.74;100.00;99893.66;4863724;28;24448;-66
2023/12/21 04:09:47;;;;;;;0.80;0.50;;;7.60;99.90;;;7.75;100.00;99895.31;4864769;28;24436;-67
2023/12/21 04:12:09;;;;;;;0.63;0.60;;;7.50;99.90;;;7.77;100.00;99893.44;4874579;28;24493;-67
2023/12/21 04:14:31;;;;;;;0.60;0.60;;;7.60;99.90;;;7.76;100.00;99881.41;4866198;28;25067;-66
2023/12/21 04:16:52;;;;;;;0.50;0.50;;;7.60;99.90;;;7.82;100.00;99885.31;4871007;28;24431;-65
2023/12/21 04:19:14;;;;;;;0.50;0.50;;;7.60;99.90;;;7.82;100.00;99880.13;4875131;28;24544;-66
2023/12/21 04:21:36;;;;;;;0.70;0.60;;;7.60;99.90;;;7.88;100.00;99892.66;4863544;28;24443;-67
2023/12/21 04:23:58;;;;;;;0.50;0.50;;;7.60;99.90;;;7.92;100.00;99880.31;4864136;28;24454;-67
2023/12/21 04:26:21;;;;;;;0.45;0.45;;;7.70;99.90;;;7.88;100.00;99860.69;4859569;28;24432;-67
2023/12/21 04:28:43;;;;;;;0.40;0.40;;;7.60;99.90;;;7.83;100.00;99871.41;4869880;28;25090;-69
2023/12/21 04:31:05;;;;;;;0.60;0.60;;;7.60;99.90;;;7.90;100.00;99864.00;4868712;28;24459;-66
2023/12/21 04:33:27;;;;;;;0.50;0.50;;;7.60;99.90;;;7.90;100.00;99851.81;4875318;28;24466;-66
2023/12/21 04:35:49;;;;;;;0.70;0.50;;;7.70;99.90;;;7.94;100.00;99847.25;4872509;28;25056;-65
2023/12/21 04:38:12;;;;;;;0.60;0.50;;;7.70;99.90;;;7.90;100.00;99835.44;4870142;28;24507;-67
2023/12/21 04:40:34;;;;;;;0.40;0.40;;;7.70;99.90;;;7.90;100.00;99832.84;4875224;28;24980;-67
2023/12/21 04:42:56;;;;;;;0.80;0.50;;;7.70;99.90;;;7.94;100.00;99827.31;4875978;28;25026;-67
2023/12/21 04:45:18;;;;;;;0.60;0.60;;;7.70;99.90;;;7.91;100.00;99818.88;4872768;28;24446;-67
2023/12/21 04:47:40;;;;;;;0.70;0.60;;;7.70;99.90;;;7.94;100.00;99822.09;4875124;28;24482;-67
2023/12/21 04:50:03;;;;;;;0.60;0.60;;;7.70;99.90;;;7.89;100.00;99826.81;4869456;28;24450;-63
2023/12/21 04:52:25;;;;;;;0.50;0.50;;;7.70;99.90;;;7.80;100.00;99830.06;4866153;28;24497;-66
2023/12/21 04:54:47;;;;;;;0.60;0.60;;;7.60;99.90;;;7.76;100.00;99816.50;4865606;28;24517;-67
2023/12/21 04:57:09;;;;;;;0.50;0.50;;;7.60;99.90;;;7.75;100.00;99817.41;4855678;28;24445;-68
2023/12/21 04:59:31;;;;;;;0.60;0.60;;;7.60;99.90;;;7.77;100.00;99825.91;4866291;28;24526;-65
2023/12/21 05:01:54;;;;;;;1.23;0.80;;;7.60;99.90;;;7.68;100.00;99826.63;4865675;28;24498;-66
2023/12/21 05:04:16;;;;;;;0.50;0.50;;;7.50;99.90;;;7.72;100.00;99833.25;4873953;28;24459;-68
2023/12/21 05:06:38;;;;;;;0.50;0.50;;;7.50;99.90;;;7.78;100.00;99817.19;4867614;28;24453;-68
2023/12/21 05:09:00;;;;;;;0.60;0.60;;;7.60;99.90;;;7.73;100.00;99793.31;4874135;28;24455;-67
2023/12/21 05:11:22;;;;;;;0.70;0.70;;;7.60;99.90;;;7.74;100.00;99794.16;4868973;28;24457;-66
2023/12/21 05:13:44;;;;;;;0.50;0.50;;;7.60;99.90;;;7.74;100.00;99784.63;4867138;28;24455;-67
2023/12/21 05:16:06;;;;;;;0.50;0.50;;;7.50;99.90;;;7.67;100.00;99788.59;4874172;28;24431;-68
2023/12/21 05:18:28;;;;;;;0.60;0.60;;;7.50;99.90;;;7.72;100.00;99781.31;4867702;28;24452;-68
2023/12/21 05:20:50;;;;;;;0.60;0.60;;;7.50;99.90;;;7.84;100.00;99785.59;4868683;28;24482;-67
2023/12/21 05:23:12;;;;;;;0.50;0.50;;;7.60;99.90;;;7.76;100.00;99764.56;4871037;28;20775;-68
2023/12/21 05:25:34;;;;;;;0.70;0.60;;;7.60;99.90;;;7.81;100.00;99753.84;4856253;28;24434;-67
2023/12/21 05:27:56;;;;;;;0.90;0.80;;;7.60;99.90;;;7.70;100.00;99758.97;4868957;28;25256;-67
2023/12/21 05:30:18;;;;;;;1.95;0.70;;;7.50;99.90;;;7.76;100.00;99761.97;4873341;28;25026;-67
2023/12/21 05:32:40;;;;;;;0.70;0.70;;;7.50;99.90;;;7.75;100.00;99773.28;4844494;28;24440;-66
2023/12/21 05:35:04;;;;;;;2.17;1.52;;;7.60;99.90;;;7.78;100.00;99767.88;4866983;28;24460;-68
2023/12/21 05:37:29;;;;;;;0.80;0.80;;;7.60;99.90;;;7.84;100.00;99764.81;4866026;28;24445;-66
2023/12/21 05:39:51;;;;;;;0.60;0.60;;;7.60;99.90;;;7.93;100.00;99763.28;4865563;28;24529;-67
2023/12/21 05:42:13;;;;;;;0.50;0.50;;;7.70;99.90;;;8.06;100.00;99745.03;4872463;28;24538;-67
2023/12/21 05:44:35;;;;;;;1.00;0.40;;;7.80;99.90;;;8.15;100.00;99746.94;4869730;28;24443;-67
2023/12/21 05:46:57;;;;;;;0.40;0.40;;;7.90;99.90;;;8.28;100.00;99740.72;4870974;28;24431;-67
2023/12/21 05:49:19;;;;;;;0.40;0.40;;;8.00;99.90;;;8.36;100.00;99733.16;4870161;28;24470;-66
2023/12/21 05:51:41;;;;;;;0.35;0.35;;;8.10;99.90;;;8.42;100.00;99740.47;4872079;28;25015;-66
2023/12/21 05:54:03;;;;;;;0.40;0.40;;;8.10;99.90;;;8.45;100.00;99732.44;4862923;28;24549;-66
2023/12/21 05:56:25;;;;;;;0.30;0.30;;;8.10;99.90;;;8.59;100.00;99726.16;4861106;28;24486;-69
2023/12/21 05:58:47;;;;;;;0.30;0.30;;;8.30;99.90;;;8.65;100.00;99730.88;4864516;28;24501;-67
2023/12/21 06:01:09;;;;;;;0.30;0.30;;;8.40;99.90;;;8.70;100.00;99714.94;4857339;28;25068;-65
2023/12/21 06:03:31;;;;;;;0.30;0.30;;;8.50;99.90;;;8.77;99.53;99719.56;4862135;28;24443;-66
2023/12/21 06:05:54;;;;;;;0.30;0.30;;;8.50;99.90;;;8.84;99.33;99717.28;4862681;28;24531;-66
2023/12/21 06:08:16;;;;;;;0.40;0.40;;;8.60;99.90;;;8.85;99.33;99706.75;4865195;28;24485;-66
2023/12/21 06:10:37;;;;;;;0.30;0.30;;;8.60;99.90;;;8.84;99.85;99701.69;4868670;28;24796;-64
2023/12/21 06:12:59;;;;;;;0.40;0.40;;;8.60;99.90;;;8.84;99.62;99705.09;4871758;28;26188;-66
2023/12/21 06:15:22;;;;;;;0.30;0.30;;;8.60;99.90;;;8.84;99.39;99707.69;4870268;28;24884;-66
2023/12/21 06:17:44;;;;;;;0.40;0.40;;;8.60;99.90;;;8.84;99.11;99710.28;4871741;28;24449;-66
2023/12/21 06:20:07;;;;;;;0.40;0.40;;;8.60;99.90;;;8.83;99.63;99711.25;4872066;28;24428;-65
2023/12/21 06:22:29;;;;;;;0.30;0.30;;;8.60;99.90;;;8.81;99.82;99700.16;4861054;28;24447;-65
2023/12/21 06:24:51;;;;;;;0.40;0.40;;;8.60;99.90;;;8.84;99.27;99704.28;4863840;28;24447;-67
2023/12/21 06:27:13;;;;;;;0.40;0.40;;;8.60;99.90;;;8.89;99.69;99702.97;4861619;28;24517;-66
2023/12/21 06:29:35;;;;;;;0.30;0.30;;;8.60;99.90;;;8.89;99.41;99702.97;4856259;28;24551;-66
2023/12/21 06:31:56;;;;;;;0.40;0.40;;;8.70;99.90;;;8.86;99.51;99692.78;4870472;28;24797;-66
2023/12/21 06:34:19;;;;;;;0.30;0.30;;;8.70;99.90;;;8.86;99.83;99703.19;4864102;28;24458;-66
2023/12/21 06:36:41;;;;;;;0.43;0.43;;;8.60;99.90;;;8.91;99.95;99690.66;4871374;28;24449;-63
2023/12/21 06:39:03;;;;;;;0.50;0.40;;;8.60;99.90;;;8.92;99.38;99681.88;4868634;28;25110;-65
2023/12/21 06:41:25;;;;;;;0.40;0.40;;;8.70;99.90;;;8.94;99.41;99681.78;4873254;28;24427;-65
2023/12/21 06:43:47;;;;;;;0.40;0.40;;;8.70;99.90;;;8.94;99.78;99682.63;4855685;28;24448;-66
2023/12/21 06:46:15;;;;;;;0.30;0.30;;;8.70;99.90;;;8.85;100.00;99667.75;4868200;28;25073;-66
2023/12/21 06:48:37;;;;;;;0.40;0.40;;;8.70;99.90;;;8.86;100.00;99658.16;4868814;28;24515;-66
2023/12/21 06:50:59;;;;;;;0.60;0.60;;;8.60;99.90;;;8.87;100.00;99652.00;4866150;28;25003;-66
2023/12/21 06:53:21;;;;;;;0.40;0.40;;;8.60;99.90;;;8.88;100.00;99648.47;4873701;28;25374;-66
2023/12/21 06:55:43;;;;;;;0.50;0.40;;;8.60;99.90;;;8.80;100.00;99638.66;4868635;28;24459;-66
2023/12/21 06:58:05;;;;;;;0.40;0.30;;;8.60;99.90;;;8.87;100.00;99632.03;4873392;28;24438;-66
2023/12/21 07:00:27;;;;;;;0.40;0.40;;;8.60;99.90;;;8.86;100.00;99629.56;4860805;28;24501;-66
2023/12/21 07:02:49;;;;;;;0.50;0.50;;;8.70;99.90;;;8.85;100.00;99633.09;4871201;28;24860;-66
2023/12/21 07:05:12;;;;;;;0.40;0.40;;;8.60;99.90;;;8.81;100.00;99624.72;4873702;28;24486;-67
2023/12/21 07:07:34;;;;;;;0.40;0.40;;;8.60;99.90;;;8.83;100.00;99625.41;4871497;28;24905;-66
2023/12/21 07:09:56;;;;;;;0.40;0.40;;;8.60;99.90;;;8.79;100.00;99618.81;4869096;28;24680;-67
2023/12/21 07:12:19;;;;;;;0.60;0.40;;;8.60;99.90;;;8.87;100.00;99620.78;4872449;28;24454;-69
2023/12/21 07:14:41;;;;;;;0.40;0.40;;;8.60;99.90;;;8.83;100.00;99614.19;4857577;28;24506;-67
2023/12/21 07:17:03;;;;;;;0.30;0.30;;;8.60;99.90;;;8.84;100.00;99611.44;4866923;28;24514;-66
2023/12/21 07:19:25;;;;;;;0.40;0.40;;;8.60;99.90;;;8.89;100.00;99619.72;4868272;28;24450;-66
2023/12/21 07:21:47;;;;;;;0.40;0.40;;;8.60;99.90;;;8.89;100.00;99619.72;4861112;28;24446;-66
2023/12/21 07:24:09;;;;;;;0.70;0.40;;;8.60;99.90;;;8.89;100.00;99617.13;4862468;28;24850;-65
2023/12/21 07:26:31;;;;;;;0.50;0.50;;;8.70;99.90;;;8.93;100.00;99613.31;4860431;28;25075;-66
2023/12/21 07:28:53;;;;;;;0.40;0.40;;;8.70;99.90;;;8.91;100.00;99606.56;4862519;28;25060;-66
2023/12/21 07:31:17;;;;;;;0.80;0.40;;;8.70;99.90;;;8.88;100.00;99607.66;4871679;28;24432;-66
2023/12/21 07:33:39;;;;;;;0.40;0.40;;;8.60;99.90;;;8.90;100.00;99595.34;4875329;28;24423;-67
2023/12/21 07:36:02;;;;;;;0.40;0.30;;;8.60;99.90;;;8.88;100.00;99599.03;4867456;28;24525;-67
2023/12/21 07:38:24;;;;;;;1.00;0.40;;;8.60;99.90;;;8.94;100.00;99595.94;4875341;28;24870;-68
2023/12/21 07:40:46;;;;;;;0.40;0.40;;;8.70;99.90;;;8.92;100.00;99587.44;4868800;28;24427;-66
2023/12/21 07:43:08;;;;;;;1.30;0.50;;;8.60;99.90;;;8.90;100.00;99591.94;4873267;28;25011;-66
2023/12/21 07:45:30;;;;;;;0.30;0.30;;;8.60;99.90;;;8.91;100.00;99583.16;4872437;28;24427;-66
2023/12/21 07:47:52;;;;;;;0.40;0.40;;;8.60;99.90;;;8.94;100.00;99580.34;4877036;28;24466;-65
2023/12/21 07:50:14;;;;;;;0.40;0.40;;;8.60;99.90;;;8.94;100.00;99580.34;4873573;28;24451;-66
2023/12/21 07:52:37;;;;;;;0.40;0.40;;;8.70;99.90;;;8.96;100.00;99576.66;4863776;28;24455;-66
2023/12/21 07:54:59;;;;;;;0.30;0.30;;;8.70;99.90;;;8.93;100.00;99569.09;4861147;28;24463;-66
2023/12/21 07:57:21;;;;;;;1.00;0.50;;;8.70;99.90;;;8.98;100.00;99577.34;4873613;28;25149;-66
2023/12/21 07:59:45;;;;;;;0.40;0.40;;;8.70;99.90;;;9.04;100.00;99566.44;4872013;28;24450;-66
2023/12/21 08:02:07;;;;;;;0.40;0.40;;;8.70;99.90;;;9.09;100.00;99564.28;4876107;28;24481;-66
2023/12/21 08:04:30;;;;;;;0.40;0.40;;;8.80;99.90;;;9.12;100.00;99564.03;4871113;28;24447;-66
2023/12/21 08:06:53;;;;;;;0.40;0.40;;;8.80;99.90;;;9.13;100.00;99563.09;4861445;28;25276;-66
2023/12/21 08:09:15;;;;;;;0.30;0.30;;;8.90;99.90;;;9.18;100.00;99566.13;4858189;28;24592;-66
2023/12/21 08:11:37;;;;;;;0.40;0.40;;;8.90;99.90;;;9.16;100.00;99572.41;4875244;28;24466;-67
2023/12/21 08:14:00;;;;;;;0.40;0.40;;;8.90;99.90;;;9.13;100.00;99570.91;4866996;28;24501;-66
2023/12/21 08:16:22;;;;;;;0.40;0.40;;;8.90;99.90;;;9.19;100.00;99559.13;4867146;28;24821;-66
2023/12/21 08:18:44;;;;;;;0.30;0.30;;;8.90;99.90;;;9.20;100.00;99545.16;4848885;28;24814;-65
2023/12/21 08:21:06;;;;;;;0.40;0.40;;;8.90;99.90;;;9.22;100.00;99540.69;4863444;28;24995;-65
2023/12/21 08:23:28;;;;;;;0.40;0.40;;;8.90;99.90;;;9.23;100.00;99539.72;4869167;28;24423;-67
2023/12/21 08:25:50;;;;;;;0.60;0.40;;;8.90;99.90;;;9.27;100.00;99547.16;4875877;28;24872;-66
2023/12/21 08:28:12;;;;;;;0.40;0.40;;;8.90;99.90;;;9.30;100.00;99531.28;4872092;28;24462;-66
2023/12/21 08:30:34;;;;;;;0.40;0.40;;;9.00;99.90;;;9.35;100.00;99536.91;4861811;28;24456;-66
2023/12/21 08:32:56;;;;;;;0.30;0.30;;;9.00;99.90;;;9.38;99.64;99539.25;4856493;28;24502;-68
2023/12/21 08:35:18;;;;;;;0.40;0.40;;;9.10;99.90;;;9.43;99.17;99532.84;4866580;28;24451;-66
2023/12/21 08:37:40;;;;;;;0.40;0.40;;;9.10;99.90;;;9.41;99.05;99519.97;4868539;28;24446;-67
2023/12/21 08:40:02;;;;;;;1.10;0.40;;;9.10;99.90;;;9.51;98.44;99525.19;4869869;28;24443;-67
2023/12/21 08:42:26;;;;;;;0.40;0.40;;;9.20;99.90;;;9.51;98.51;99513.00;4874896;28;24485;-66
2023/12/21 08:44:49;;;;;;;0.40;0.40;;;9.20;99.90;;;9.45;98.62;99512.72;4867734;28;24451;-66
2023/12/21 08:47:10;;;;;;;0.40;0.40;;;9.10;99.90;;;9.45;99.12;99500.53;4869052;28;24479;-66
2023/12/21 08:49:33;;;;;;;0.40;0.40;;;9.10;99.90;;;9.53;98.66;99492.03;4864816;28;24448;-68
2023/12/21 08:51:55;;;;;;;0.40;0.40;;;9.20;99.90;;;9.58;98.40;99502.91;4864374;28;24547;-66
2023/12/21 08:54:17;;;;;;;0.40;0.40;;;9.30;99.90;;;9.59;98.42;99513.19;4866325;28;24544;-65
2023/12/21 08:56:46;;;;;;;0.50;0.50;;;9.30;99.90;;;9.57;98.10;99507.28;4866481;28;24538;-67
2023/12/21 08:59:08;;;;;;;0.50;0.40;;;9.30;99.90;;;9.60;98.38;99470.56;4873309;28;24541;-70
2023/12/21 09:01:30;;;;;;;0.50;0.40;;;9.20;99.90;;;9.55;98.93;99453.69;4873273;28;24450;-66
2023/12/21 09:03:52;;;;;;;0.50;0.50;;;9.20;99.90;;;9.56;98.19;99453.53;4854775;28;25229;-66
2023/12/21 09:06:14;;;;;;;0.40;0.40;;;9.30;99.90;;;9.56;99.03;99448.34;4863241;28;25003;-66
2023/12/21 09:08:37;;;;;;;0.40;0.40;;;9.30;99.90;;;9.57;99.24;99452.59;4861876;28;24884;-64
2023/12/21 09:10:59;;;;;;;0.50;0.45;;;9.20;99.90;;;9.61;98.84;99455.75;4867525;28;24467;-66
2023/12/21 09:13:21;;;;;;;0.40;0.40;;;9.30;99.90;;;9.59;98.88;99442.88;4874328;28;24431;-66
2023/12/21 09:15:43;;;;;;;0.40;0.40;;;9.30;99.90;;;9.58;99.73;99435.19;4868605;28;24867;-67
2023/12/21 09:18:08;;;;;;;0.50;0.40;;;9.30;99.90;;;9.61;99.38;99430.53;4858135;28;24443;-66
2023/12/21 09:20:30;;;;;;;0.50;0.50;;;9.30;99.90;;;9.66;98.84;99423.16;4860564;28;24800;-66
2023/12/21 09:22:52;;;;;;;0.40;0.40;;;9.40;99.90;;;9.68;99.08;99404.78;4852826;28;25056;-67
2023/12/21 09:25:14;;;;;;;0.90;0.40;;;9.40;99.90;;;9.70;99.42;99411.50;4864860;28;24534;-67
2023/12/21 09:27:36;;;;;;;0.40;0.40;;;9.40;99.90;;;9.66;99.88;99406.72;4873083;28;24427;-67
2023/12/21 09:29:58;;;;;;;0.40;0.40;;;9.40;99.90;;;9.68;100.00;99402.19;4862834;28;25077;-69
2023/12/21 09:32:20;;;;;;;0.40;0.40;;;9.40;99.90;;;9.67;100.00;99395.34;4867544;28;24817;-66
2023/12/21 09:34:47;;;;;;;0.40;0.40;;;9.40;99.90;;;9.69;100.00;99390.81;4867375;28;24501;-66
2023/12/21 09:37:09;;;;;;;0.40;0.40;;;9.40;99.90;;;9.67;100.00;99384.94;4861925;28;20773;-67
2023/12/21 09:39:31;;;;;;;0.45;0.45;;;9.40;99.90;;;9.65;100.00;99392.84;4861350;28;24455;-66
2023/12/21 09:41:53;;;;;;;0.50;0.50;;;9.40;99.90;;;9.66;100.00;99378.06;4863274;28;25127;-66
2023/12/21 09:44:25;;;;;;;0.40;0.40;;;9.30;99.90;;;9.65;100.00;99369.41;4870979;28;24840;-67
2023/12/21 09:46:50;;;;;;;0.40;0.40;;;9.30;99.90;;;9.65;100.00;99359.00;4871973;28;24506;-68
2023/12/21 09:49:14;;;;;;;0.60;0.50;;;9.40;99.90;;;9.67;100.00;99349.25;4855075;28;24432;-67
2023/12/21 09:51:37;;;;;;;0.40;0.40;;;9.40;99.90;;;9.75;100.00;99351.22;4872583;28;24988;-67
2023/12/21 09:54:01;;;;;;;0.50;0.50;;;9.40;99.90;;;9.71;100.00;99337.63;4865631;28;24521;-67
2023/12/21 09:56:24;;;;;;;0.40;0.40;;;9.40;99.90;;;9.70;100.00;99322.13;4873776;28;24458;-68
2023/12/21 09:58:48;;;;;;;0.40;0.40;;;9.40;99.90;;;9.69;100.00;99303.06;4846302;28;24444;-68
2023/12/21 10:01:10;;;;;;;0.50;0.50;;;9.40;99.90;;;9.69;100.00;99294.47;4846531;28;24489;-66
2023/12/21 10:03:33;;;;;;;0.50;0.50;;;9.40;99.90;;;9.75;100.00;99276.47;4860353;28;24481;-67